sensor_id;sensor_type;location;lat;lon;timestamp;P1;durP1;ratioP1;P2;durP2;ratioP2
3131;SDS011;62090;52.330;9.104;2023-07-24T00:00:14;4.00;;;2.90;;
3131;SDS011;62090;52.330;9.104;2023-07-24T00:02:44;4.80;;;2.67;;
3131;SDS011;62090;52.330;9.104;2023-07-24T00:05:17;7.50;;;3.40;;
3131;SDS011;62090;52.330;9.104;2023-07-24T00:07:47;8.10;;;2.90;;
3131;SDS011;62090;52.330;9.104;2023-07-24T00:10:17;5.63;;;3.53;;
3131;SDS011;62090;52.330;9.104;2023-07-24T00:12:47;8.80;;;3.80;;
3131;SDS011;62090;52.330;9.104;2023-07-24T00:15:17;6.27;;;2.90;;
3131;SDS011;62090;52.330;9.104;2023-07-24T00:17:47;4.17;;;3.40;;
3131;SDS011;62090;52.330;9.104;2023-07-24T00:20:19;6.23;;;3.17;;
3131;SDS011;62090;52.330;9.104;2023-07-24T00:22:51;5.73;;;4.30;;
3131;SDS011;62090;52.330;9.104;2023-07-24T00:25:20;4.40;;;4.00;;
3131;SDS011;62090;52.330;9.104;2023-07-24T00:27:50;4.40;;;3.63;;
3131;SDS011;62090;52.330;9.104;2023-07-24T00:30:20;7.53;;;4.30;;
3131;SDS011;62090;52.330;9.104;2023-07-24T00:32:50;7.13;;;4.07;;
3131;SDS011;62090;52.330;9.104;2023-07-24T00:35:24;4.33;;;3.50;;
3131;SDS011;62090;52.330;9.104;2023-07-24T00:37:55;5.03;;;3.93;;
3131;SDS011;62090;52.330;9.104;2023-07-24T00:40:25;5.00;;;3.57;;
3131;SDS011;62090;52.330;9.104;2023-07-24T00:42:55;6.90;;;4.00;;
3131;SDS011;62090;52.330;9.104;2023-07-24T00:45:25;4.30;;;3.60;;
3131;SDS011;62090;52.330;9.104;2023-07-24T00:47:55;6.60;;;4.20;;
3131;SDS011;62090;52.330;9.104;2023-07-24T00:50:27;5.40;;;4.30;;
3131;SDS011;62090;52.330;9.104;2023-07-24T00:52:59;4.60;;;3.53;;
3131;SDS011;62090;52.330;9.104;2023-07-24T00:55:30;10.03;;;4.90;;
3131;SDS011;62090;52.330;9.104;2023-07-24T00:58:00;6.83;;;4.40;;
3131;SDS011;62090;52.330;9.104;2023-07-24T01:00:32;7.00;;;4.50;;
3131;SDS011;62090;52.330;9.104;2023-07-24T01:03:02;4.10;;;3.43;;
3131;SDS011;62090;52.330;9.104;2023-07-24T01:05:35;9.47;;;4.90;;
3131;SDS011;62090;52.330;9.104;2023-07-24T01:08:05;6.17;;;5.10;;
3131;SDS011;62090;52.330;9.104;2023-07-24T01:10:35;8.13;;;5.63;;
3131;SDS011;62090;52.330;9.104;2023-07-24T01:13:05;7.47;;;5.40;;
3131;SDS011;62090;52.330;9.104;2023-07-24T01:15:45;10.33;;;5.30;;
3131;SDS011;62090;52.330;9.104;2023-07-24T01:18:19;6.40;;;5.20;;
3131;SDS011;62090;52.330;9.104;2023-07-24T01:20:56;11.60;;;5.67;;
3131;SDS011;62090;52.330;9.104;2023-07-24T01:23:35;8.43;;;5.33;;
3131;SDS011;62090;52.330;9.104;2023-07-24T01:26:17;7.10;;;4.87;;
3131;SDS011;62090;52.330;9.104;2023-07-24T01:28:50;9.93;;;5.13;;
3131;SDS011;62090;52.330;9.104;2023-07-24T01:31:20;6.43;;;5.50;;
3131;SDS011;62090;52.330;9.104;2023-07-24T01:33:50;14.40;;;6.30;;
3131;SDS011;62090;52.330;9.104;2023-07-24T01:36:20;10.27;;;5.73;;
3131;SDS011;62090;52.330;9.104;2023-07-24T01:38:50;6.50;;;5.80;;
3131;SDS011;62090;52.330;9.104;2023-07-24T01:41:23;8.00;;;5.27;;
3131;SDS011;62090;52.330;9.104;2023-07-24T01:43:54;6.80;;;5.20;;
3131;SDS011;62090;52.330;9.104;2023-07-24T01:46:23;6.23;;;5.43;;
3131;SDS011;62090;52.330;9.104;2023-07-24T01:48:54;8.37;;;6.60;;
3131;SDS011;62090;52.330;9.104;2023-07-24T01:51:24;7.47;;;5.80;;
3131;SDS011;62090;52.330;9.104;2023-07-24T01:53:54;8.63;;;5.83;;
3131;SDS011;62090;52.330;9.104;2023-07-24T01:56:26;14.40;;;6.33;;
3131;SDS011;62090;52.330;9.104;2023-07-24T01:58:57;6.47;;;5.47;;
3131;SDS011;62090;52.330;9.104;2023-07-24T02:01:26;11.23;;;6.27;;
3131;SDS011;62090;52.330;9.104;2023-07-24T02:03:56;10.00;;;6.37;;
3131;SDS011;62090;52.330;9.104;2023-07-24T02:06:27;10.20;;;6.00;;
3131;SDS011;62090;52.330;9.104;2023-07-24T02:08:57;12.33;;;5.90;;
3131;SDS011;62090;52.330;9.104;2023-07-24T02:11:30;9.93;;;5.33;;
3131;SDS011;62090;52.330;9.104;2023-07-24T02:14:00;11.57;;;6.27;;
3131;SDS011;62090;52.330;9.104;2023-07-24T02:16:29;8.30;;;5.70;;
3131;SDS011;62090;52.330;9.104;2023-07-24T02:19:00;11.87;;;5.30;;
3131;SDS011;62090;52.330;9.104;2023-07-24T02:21:30;15.30;;;5.90;;
3131;SDS011;62090;52.330;9.104;2023-07-24T02:24:00;8.87;;;6.20;;
3131;SDS011;62090;52.330;9.104;2023-07-24T02:26:33;9.50;;;5.80;;
3131;SDS011;62090;52.330;9.104;2023-07-24T02:29:02;16.57;;;6.20;;
3131;SDS011;62090;52.330;9.104;2023-07-24T02:31:33;12.10;;;5.97;;
3131;SDS011;62090;52.330;9.104;2023-07-24T02:34:03;11.43;;;6.10;;
3131;SDS011;62090;52.330;9.104;2023-07-24T02:36:33;14.77;;;6.37;;
3131;SDS011;62090;52.330;9.104;2023-07-24T02:39:03;10.47;;;5.63;;
3131;SDS011;62090;52.330;9.104;2023-07-24T02:41:35;10.37;;;5.50;;
3131;SDS011;62090;52.330;9.104;2023-07-24T02:44:05;10.63;;;4.93;;
3131;SDS011;62090;52.330;9.104;2023-07-24T02:46:35;13.73;;;4.63;;
3131;SDS011;62090;52.330;9.104;2023-07-24T02:49:05;5.50;;;4.33;;
3131;SDS011;62090;52.330;9.104;2023-07-24T02:51:35;10.07;;;4.10;;
3131;SDS011;62090;52.330;9.104;2023-07-24T02:54:05;6.37;;;4.40;;
3131;SDS011;62090;52.330;9.104;2023-07-24T02:56:38;8.37;;;4.00;;
3131;SDS011;62090;52.330;9.104;2023-07-24T02:59:08;10.40;;;3.63;;
3131;SDS011;62090;52.330;9.104;2023-07-24T03:01:38;13.83;;;4.90;;
3131;SDS011;62090;52.330;9.104;2023-07-24T03:04:08;7.53;;;3.50;;
3131;SDS011;62090;52.330;9.104;2023-07-24T03:06:38;9.13;;;3.53;;
3131;SDS011;62090;52.330;9.104;2023-07-24T03:09:08;9.20;;;3.47;;
3131;SDS011;62090;52.330;9.104;2023-07-24T03:11:41;18.10;;;4.00;;
3131;SDS011;62090;52.330;9.104;2023-07-24T03:14:11;10.33;;;3.60;;
3131;SDS011;62090;52.330;9.104;2023-07-24T03:16:41;6.80;;;3.70;;
3131;SDS011;62090;52.330;9.104;2023-07-24T03:19:11;5.77;;;2.93;;
3131;SDS011;62090;52.330;9.104;2023-07-24T03:21:41;7.30;;;3.50;;
3131;SDS011;62090;52.330;9.104;2023-07-24T03:24:11;4.87;;;3.00;;
3131;SDS011;62090;52.330;9.104;2023-07-24T03:26:43;5.63;;;3.10;;
3131;SDS011;62090;52.330;9.104;2023-07-24T03:29:13;12.73;;;3.60;;
3131;SDS011;62090;52.330;9.104;2023-07-24T03:31:43;13.23;;;3.10;;
3131;SDS011;62090;52.330;9.104;2023-07-24T03:34:13;4.47;;;3.00;;
3131;SDS011;62090;52.330;9.104;2023-07-24T03:36:43;6.43;;;3.33;;
3131;SDS011;62090;52.330;9.104;2023-07-24T03:39:13;10.47;;;3.17;;
3131;SDS011;62090;52.330;9.104;2023-07-24T03:41:45;7.17;;;3.03;;
3131;SDS011;62090;52.330;9.104;2023-07-24T03:44:15;2.93;;;2.63;;
3131;SDS011;62090;52.330;9.104;2023-07-24T03:46:45;10.63;;;3.27;;
3131;SDS011;62090;52.330;9.104;2023-07-24T03:49:15;8.70;;;2.90;;
3131;SDS011;62090;52.330;9.104;2023-07-24T03:51:45;9.33;;;3.20;;
3131;SDS011;62090;52.330;9.104;2023-07-24T03:54:15;6.20;;;2.77;;
3131;SDS011;62090;52.330;9.104;2023-07-24T03:56:48;13.13;;;4.17;;
3131;SDS011;62090;52.330;9.104;2023-07-24T03:59:18;7.53;;;3.13;;
3131;SDS011;62090;52.330;9.104;2023-07-24T04:01:48;8.63;;;2.90;;
3131;SDS011;62090;52.330;9.104;2023-07-24T04:04:17;10.37;;;3.33;;
3131;SDS011;62090;52.330;9.104;2023-07-24T04:06:47;5.17;;;3.20;;
3131;SDS011;62090;52.330;9.104;2023-07-24T04:09:17;16.47;;;3.40;;
3131;SDS011;62090;52.330;9.104;2023-07-24T04:11:50;7.13;;;2.80;;
3131;SDS011;62090;52.330;9.104;2023-07-24T04:14:20;10.00;;;2.90;;
3131;SDS011;62090;52.330;9.104;2023-07-24T04:16:49;13.07;;;3.10;;
3131;SDS011;62090;52.330;9.104;2023-07-24T04:19:20;10.03;;;2.93;;
3131;SDS011;62090;52.330;9.104;2023-07-24T04:21:50;8.10;;;2.50;;
3131;SDS011;62090;52.330;9.104;2023-07-24T04:24:20;12.40;;;3.13;;
3131;SDS011;62090;52.330;9.104;2023-07-24T04:26:52;7.60;;;3.60;;
3131;SDS011;62090;52.330;9.104;2023-07-24T04:29:22;12.00;;;3.30;;
3131;SDS011;62090;52.330;9.104;2023-07-24T04:31:52;20.20;;;3.87;;
3131;SDS011;62090;52.330;9.104;2023-07-24T04:34:22;10.00;;;3.40;;
3131;SDS011;62090;52.330;9.104;2023-07-24T04:36:52;12.77;;;3.40;;
3131;SDS011;62090;52.330;9.104;2023-07-24T04:39:22;24.43;;;3.60;;
3131;SDS011;62090;52.330;9.104;2023-07-24T04:41:55;10.57;;;3.20;;
3131;SDS011;62090;52.330;9.104;2023-07-24T04:44:24;6.50;;;2.70;;
3131;SDS011;62090;52.330;9.104;2023-07-24T04:46:55;5.70;;;3.00;;
3131;SDS011;62090;52.330;9.104;2023-07-24T04:49:25;16.90;;;3.23;;
3131;SDS011;62090;52.330;9.104;2023-07-24T04:51:55;7.53;;;2.97;;
3131;SDS011;62090;52.330;9.104;2023-07-24T04:54:25;5.20;;;2.80;;
3131;SDS011;62090;52.330;9.104;2023-07-24T04:56:58;4.73;;;3.60;;
3131;SDS011;62090;52.330;9.104;2023-07-24T04:59:28;9.63;;;3.57;;
3131;SDS011;62090;52.330;9.104;2023-07-24T05:01:58;13.23;;;3.57;;
3131;SDS011;62090;52.330;9.104;2023-07-24T05:04:28;8.17;;;3.27;;
3131;SDS011;62090;52.330;9.104;2023-07-24T05:06:58;6.93;;;3.20;;
3131;SDS011;62090;52.330;9.104;2023-07-24T05:09:28;6.87;;;3.60;;
3131;SDS011;62090;52.330;9.104;2023-07-24T05:12:00;5.67;;;2.80;;
3131;SDS011;62090;52.330;9.104;2023-07-24T05:14:30;6.20;;;3.10;;
3131;SDS011;62090;52.330;9.104;2023-07-24T05:17:00;7.03;;;3.10;;
3131;SDS011;62090;52.330;9.104;2023-07-24T05:19:30;5.67;;;3.03;;
3131;SDS011;62090;52.330;9.104;2023-07-24T05:22:00;11.13;;;3.07;;
3131;SDS011;62090;52.330;9.104;2023-07-24T05:24:30;6.47;;;3.27;;
3131;SDS011;62090;52.330;9.104;2023-07-24T05:27:03;4.57;;;3.23;;
3131;SDS011;62090;52.330;9.104;2023-07-24T05:29:34;5.60;;;3.13;;
3131;SDS011;62090;52.330;9.104;2023-07-24T05:32:04;5.30;;;2.60;;
3131;SDS011;62090;52.330;9.104;2023-07-24T05:34:35;2.93;;;2.60;;
3131;SDS011;62090;52.330;9.104;2023-07-24T05:37:05;5.50;;;2.90;;
3131;SDS011;62090;52.330;9.104;2023-07-24T05:39:35;9.33;;;3.00;;
3131;SDS011;62090;52.330;9.104;2023-07-24T05:42:07;7.13;;;2.60;;
3131;SDS011;62090;52.330;9.104;2023-07-24T05:44:37;5.90;;;3.30;;
3131;SDS011;62090;52.330;9.104;2023-07-24T05:47:07;5.10;;;3.10;;
3131;SDS011;62090;52.330;9.104;2023-07-24T05:49:37;4.47;;;2.63;;
3131;SDS011;62090;52.330;9.104;2023-07-24T05:52:08;7.80;;;3.30;;
3131;SDS011;62090;52.330;9.104;2023-07-24T05:54:38;13.03;;;3.67;;
3131;SDS011;62090;52.330;9.104;2023-07-24T05:57:11;11.77;;;3.40;;
3131;SDS011;62090;52.330;9.104;2023-07-24T05:59:41;5.10;;;3.33;;
3131;SDS011;62090;52.330;9.104;2023-07-24T06:02:11;8.50;;;3.13;;
3131;SDS011;62090;52.330;9.104;2023-07-24T06:04:41;8.67;;;3.43;;
3131;SDS011;62090;52.330;9.104;2023-07-24T06:07:11;5.40;;;3.30;;
3131;SDS011;62090;52.330;9.104;2023-07-24T06:09:41;5.87;;;3.70;;
3131;SDS011;62090;52.330;9.104;2023-07-24T06:12:13;14.50;;;3.70;;
3131;SDS011;62090;52.330;9.104;2023-07-24T06:14:43;9.20;;;3.70;;
3131;SDS011;62090;52.330;9.104;2023-07-24T06:17:13;6.20;;;3.40;;
3131;SDS011;62090;52.330;9.104;2023-07-24T06:19:43;16.70;;;3.80;;
3131;SDS011;62090;52.330;9.104;2023-07-24T06:22:14;6.70;;;3.10;;
3131;SDS011;62090;52.330;9.104;2023-07-24T06:24:44;6.57;;;3.87;;
3131;SDS011;62090;52.330;9.104;2023-07-24T06:27:16;7.07;;;4.13;;
3131;SDS011;62090;52.330;9.104;2023-07-24T06:29:46;9.83;;;3.83;;
3131;SDS011;62090;52.330;9.104;2023-07-24T06:32:21;8.17;;;4.10;;
3131;SDS011;62090;52.330;9.104;2023-07-24T06:34:51;12.43;;;4.43;;
3131;SDS011;62090;52.330;9.104;2023-07-24T06:37:22;6.67;;;3.83;;
3131;SDS011;62090;52.330;9.104;2023-07-24T06:39:52;6.50;;;3.90;;
3131;SDS011;62090;52.330;9.104;2023-07-24T06:42:24;7.83;;;3.70;;
3131;SDS011;62090;52.330;9.104;2023-07-24T06:44:54;11.30;;;4.40;;
3131;SDS011;62090;52.330;9.104;2023-07-24T06:47:24;19.00;;;5.13;;
3131;SDS011;62090;52.330;9.104;2023-07-24T06:49:54;6.33;;;3.97;;
3131;SDS011;62090;52.330;9.104;2023-07-24T06:52:24;9.60;;;4.87;;
3131;SDS011;62090;52.330;9.104;2023-07-24T06:54:54;7.97;;;4.70;;
3131;SDS011;62090;52.330;9.104;2023-07-24T06:57:27;6.17;;;4.20;;
3131;SDS011;62090;52.330;9.104;2023-07-24T06:59:57;6.40;;;3.43;;
3131;SDS011;62090;52.330;9.104;2023-07-24T07:02:27;5.97;;;3.40;;
3131;SDS011;62090;52.330;9.104;2023-07-24T07:04:57;7.03;;;3.67;;
3131;SDS011;62090;52.330;9.104;2023-07-24T07:07:27;5.03;;;3.97;;
3131;SDS011;62090;52.330;9.104;2023-07-24T07:09:58;5.67;;;3.53;;
3131;SDS011;62090;52.330;9.104;2023-07-24T07:12:33;7.17;;;3.50;;
3131;SDS011;62090;52.330;9.104;2023-07-24T07:15:03;6.77;;;2.80;;
3131;SDS011;62090;52.330;9.104;2023-07-24T07:17:34;4.17;;;2.90;;
3131;SDS011;62090;52.330;9.104;2023-07-24T07:20:05;6.83;;;2.90;;
3131;SDS011;62090;52.330;9.104;2023-07-24T07:22:36;5.17;;;3.57;;
3131;SDS011;62090;52.330;9.104;2023-07-24T07:25:06;5.67;;;3.83;;
3131;SDS011;62090;52.330;9.104;2023-07-24T07:27:39;5.90;;;3.53;;
3131;SDS011;62090;52.330;9.104;2023-07-24T07:30:09;5.77;;;4.20;;
3131;SDS011;62090;52.330;9.104;2023-07-24T07:32:40;13.00;;;4.13;;
3131;SDS011;62090;52.330;9.104;2023-07-24T07:35:10;8.52;;;4.80;;
3131;SDS011;62090;52.330;9.104;2023-07-24T07:37:40;21.50;;;6.43;;
3131;SDS011;62090;52.330;9.104;2023-07-24T07:40:10;9.97;;;5.30;;
3131;SDS011;62090;52.330;9.104;2023-07-24T07:42:44;12.30;;;3.47;;
3131;SDS011;62090;52.330;9.104;2023-07-24T07:45:14;5.60;;;3.47;;
3131;SDS011;62090;52.330;9.104;2023-07-24T07:47:45;5.37;;;3.47;;
3131;SDS011;62090;52.330;9.104;2023-07-24T07:50:16;5.43;;;3.30;;
3131;SDS011;62090;52.330;9.104;2023-07-24T07:52:48;5.47;;;3.80;;
3131;SDS011;62090;52.330;9.104;2023-07-24T07:55:19;4.83;;;3.37;;
3131;SDS011;62090;52.330;9.104;2023-07-24T07:57:51;3.40;;;2.80;;
3131;SDS011;62090;52.330;9.104;2023-07-24T08:00:21;3.40;;;2.93;;
3131;SDS011;62090;52.330;9.104;2023-07-24T08:02:51;5.27;;;3.53;;
3131;SDS011;62090;52.330;9.104;2023-07-24T08:05:21;4.03;;;3.23;;
3131;SDS011;62090;52.330;9.104;2023-07-24T08:07:51;4.87;;;3.43;;
3131;SDS011;62090;52.330;9.104;2023-07-24T08:10:21;7.20;;;3.80;;
3131;SDS011;62090;52.330;9.104;2023-07-24T08:12:54;5.43;;;3.50;;
3131;SDS011;62090;52.330;9.104;2023-07-24T08:15:24;5.10;;;4.20;;
3131;SDS011;62090;52.330;9.104;2023-07-24T08:17:54;6.40;;;4.40;;
3131;SDS011;62090;52.330;9.104;2023-07-24T08:20:24;6.60;;;4.97;;
3131;SDS011;62090;52.330;9.104;2023-07-24T08:22:54;10.83;;;5.33;;
3131;SDS011;62090;52.330;9.104;2023-07-24T08:25:24;12.80;;;5.63;;
3131;SDS011;62090;52.330;9.104;2023-07-24T08:27:57;11.03;;;5.93;;
3131;SDS011;62090;52.330;9.104;2023-07-24T08:30:32;8.83;;;7.30;;
3131;SDS011;62090;52.330;9.104;2023-07-24T08:33:03;11.87;;;7.20;;
3131;SDS011;62090;52.330;9.104;2023-07-24T08:35:33;7.73;;;5.90;;
3131;SDS011;62090;52.330;9.104;2023-07-24T08:38:03;10.53;;;6.07;;
3131;SDS011;62090;52.330;9.104;2023-07-24T08:40:35;8.80;;;6.10;;
3131;SDS011;62090;52.330;9.104;2023-07-24T08:43:08;9.83;;;5.90;;
3131;SDS011;62090;52.330;9.104;2023-07-24T08:45:38;8.93;;;5.83;;
3131;SDS011;62090;52.330;9.104;2023-07-24T08:48:08;8.77;;;6.27;;
3131;SDS011;62090;52.330;9.104;2023-07-24T08:50:40;9.67;;;6.10;;
3131;SDS011;62090;52.330;9.104;2023-07-24T08:53:10;7.43;;;5.90;;
3131;SDS011;62090;52.330;9.104;2023-07-24T08:55:40;13.37;;;6.10;;
3131;SDS011;62090;52.330;9.104;2023-07-24T08:58:13;9.57;;;6.70;;
3131;SDS011;62090;52.330;9.104;2023-07-24T09:00:46;11.13;;;6.37;;
3131;SDS011;62090;52.330;9.104;2023-07-24T09:03:18;9.83;;;6.40;;
3131;SDS011;62090;52.330;9.104;2023-07-24T09:05:49;12.63;;;6.40;;
3131;SDS011;62090;52.330;9.104;2023-07-24T09:08:28;6.63;;;5.90;;
3131;SDS011;62090;52.330;9.104;2023-07-24T09:10:58;12.43;;;6.33;;
3131;SDS011;62090;52.330;9.104;2023-07-24T09:13:31;10.97;;;6.20;;
3131;SDS011;62090;52.330;9.104;2023-07-24T09:16:02;8.20;;;6.40;;
3131;SDS011;62090;52.330;9.104;2023-07-24T09:18:38;6.50;;;5.90;;
3131;SDS011;62090;52.330;9.104;2023-07-24T09:21:08;7.80;;;5.77;;
3131;SDS011;62090;52.330;9.104;2023-07-24T09:23:39;10.90;;;7.10;;
3131;SDS011;62090;52.330;9.104;2023-07-24T09:26:10;6.33;;;5.73;;
3131;SDS011;62090;52.330;9.104;2023-07-24T09:28:50;9.10;;;6.10;;
3131;SDS011;62090;52.330;9.104;2023-07-24T09:31:21;7.53;;;6.20;;
3131;SDS011;62090;52.330;9.104;2023-07-24T09:33:52;7.93;;;6.40;;
3131;SDS011;62090;52.330;9.104;2023-07-24T09:36:22;6.93;;;5.63;;
3131;SDS011;62090;52.330;9.104;2023-07-24T09:38:59;7.50;;;6.00;;
3131;SDS011;62090;52.330;9.104;2023-07-24T09:41:32;6.80;;;6.10;;
3131;SDS011;62090;52.330;9.104;2023-07-24T09:44:05;9.73;;;5.70;;
3131;SDS011;62090;52.330;9.104;2023-07-24T09:46:35;6.67;;;5.97;;
3131;SDS011;62090;52.330;9.104;2023-07-24T09:49:08;7.70;;;6.33;;
3131;SDS011;62090;52.330;9.104;2023-07-24T09:51:38;7.47;;;6.03;;
3131;SDS011;62090;52.330;9.104;2023-07-24T09:54:11;14.47;;;6.37;;
3131;SDS011;62090;52.330;9.104;2023-07-24T09:56:50;12.83;;;6.70;;
3131;SDS011;62090;52.330;9.104;2023-07-24T09:59:39;7.43;;;5.73;;
3131;SDS011;62090;52.330;9.104;2023-07-24T10:02:10;9.90;;;6.50;;
3131;SDS011;62090;52.330;9.104;2023-07-24T10:04:42;15.70;;;6.70;;
3131;SDS011;62090;52.330;9.104;2023-07-24T10:07:12;12.80;;;6.93;;
3131;SDS011;62090;52.330;9.104;2023-07-24T10:09:43;9.77;;;6.30;;
3131;SDS011;62090;52.330;9.104;2023-07-24T10:12:13;10.60;;;7.40;;
3131;SDS011;62090;52.330;9.104;2023-07-24T10:14:47;9.83;;;6.80;;
3131;SDS011;62090;52.330;9.104;2023-07-24T10:17:24;8.80;;;5.23;;
3131;SDS011;62090;52.330;9.104;2023-07-24T10:20:04;16.30;;;6.40;;
3131;SDS011;62090;52.330;9.104;2023-07-24T10:22:36;7.20;;;5.87;;
3131;SDS011;62090;52.330;9.104;2023-07-24T10:25:10;6.67;;;5.07;;
3131;SDS011;62090;52.330;9.104;2023-07-24T10:27:42;9.60;;;5.60;;
3131;SDS011;62090;52.330;9.104;2023-07-24T10:30:16;9.33;;;6.33;;
3131;SDS011;62090;52.330;9.104;2023-07-24T10:33:04;9.00;;;5.70;;
3131;SDS011;62090;52.330;9.104;2023-07-24T10:35:38;11.23;;;7.20;;
3131;SDS011;62090;52.330;9.104;2023-07-24T10:38:10;9.43;;;7.00;;
3131;SDS011;62090;52.330;9.104;2023-07-24T10:40:40;8.03;;;5.83;;
3131;SDS011;62090;52.330;9.104;2023-07-24T10:43:12;8.80;;;6.07;;
3131;SDS011;62090;52.330;9.104;2023-07-24T10:45:49;8.83;;;7.07;;
3131;SDS011;62090;52.330;9.104;2023-07-24T10:48:20;7.50;;;6.70;;
3131;SDS011;62090;52.330;9.104;2023-07-24T10:50:51;9.73;;;7.03;;
3131;SDS011;62090;52.330;9.104;2023-07-24T10:53:22;5.63;;;5.03;;
3131;SDS011;62090;52.330;9.104;2023-07-24T10:55:53;5.27;;;4.70;;
3131;SDS011;62090;52.330;9.104;2023-07-24T10:58:24;6.30;;;5.13;;
3131;SDS011;62090;52.330;9.104;2023-07-24T11:00:57;6.70;;;4.73;;
3131;SDS011;62090;52.330;9.104;2023-07-24T11:03:28;8.33;;;6.50;;
3131;SDS011;62090;52.330;9.104;2023-07-24T11:05:58;6.20;;;4.13;;
3131;SDS011;62090;52.330;9.104;2023-07-24T11:08:29;5.33;;;3.87;;
3131;SDS011;62090;52.330;9.104;2023-07-24T11:11:00;3.70;;;3.40;;
3131;SDS011;62090;52.330;9.104;2023-07-24T11:13:31;5.30;;;3.50;;
3131;SDS011;62090;52.330;9.104;2023-07-24T11:16:06;4.53;;;3.30;;
3131;SDS011;62090;52.330;9.104;2023-07-24T11:18:44;4.97;;;2.70;;
3131;SDS011;62090;52.330;9.104;2023-07-24T11:21:20;2.50;;;2.00;;
3131;SDS011;62090;52.330;9.104;2023-07-24T11:23:53;2.43;;;2.23;;
3131;SDS011;62090;52.330;9.104;2023-07-24T11:26:25;4.40;;;1.77;;
3131;SDS011;62090;52.330;9.104;2023-07-24T11:28:56;2.80;;;1.50;;
3131;SDS011;62090;52.330;9.104;2023-07-24T11:31:28;1.60;;;1.50;;
3131;SDS011;62090;52.330;9.104;2023-07-24T11:34:06;1.57;;;1.47;;
3131;SDS011;62090;52.330;9.104;2023-07-24T11:36:40;3.00;;;1.57;;
3131;SDS011;62090;52.330;9.104;2023-07-24T11:39:21;1.47;;;1.20;;
3131;SDS011;62090;52.330;9.104;2023-07-24T11:41:51;2.10;;;1.53;;
3131;SDS011;62090;52.330;9.104;2023-07-24T11:44:24;2.87;;;1.90;;
3131;SDS011;62090;52.330;9.104;2023-07-24T11:47:02;3.80;;;1.30;;
3131;SDS011;62090;52.330;9.104;2023-07-24T11:49:33;2.80;;;1.50;;
3131;SDS011;62090;52.330;9.104;2023-07-24T11:52:05;2.10;;;1.57;;
3131;SDS011;62090;52.330;9.104;2023-07-24T11:54:36;1.70;;;1.60;;
3131;SDS011;62090;52.330;9.104;2023-07-24T11:57:13;7.00;;;1.70;;
3131;SDS011;62090;52.330;9.104;2023-07-24T11:59:44;1.80;;;1.33;;
3131;SDS011;62090;52.330;9.104;2023-07-24T12:02:17;1.80;;;1.70;;
3131;SDS011;62090;52.330;9.104;2023-07-24T12:04:53;4.03;;;1.73;;
3131;SDS011;62090;52.330;9.104;2023-07-24T12:07:31;1.93;;;1.33;;
3131;SDS011;62090;52.330;9.104;2023-07-24T12:10:04;2.27;;;1.90;;
3131;SDS011;62090;52.330;9.104;2023-07-24T12:12:40;4.60;;;1.70;;
3131;SDS011;62090;52.330;9.104;2023-07-24T12:15:15;3.30;;;1.67;;
3131;SDS011;62090;52.330;9.104;2023-07-24T12:17:50;3.67;;;2.07;;
3131;SDS011;62090;52.330;9.104;2023-07-24T12:20:20;2.77;;;1.80;;
3131;SDS011;62090;52.330;9.104;2023-07-24T12:22:50;2.97;;;1.80;;
3131;SDS011;62090;52.330;9.104;2023-07-24T12:25:20;2.37;;;1.93;;
3131;SDS011;62090;52.330;9.104;2023-07-24T12:27:50;2.70;;;1.63;;
3131;SDS011;62090;52.330;9.104;2023-07-24T12:30:20;4.97;;;2.20;;
3131;SDS011;62090;52.330;9.104;2023-07-24T12:32:52;2.90;;;2.00;;
3131;SDS011;62090;52.330;9.104;2023-07-24T12:35:23;4.03;;;2.17;;
3131;SDS011;62090;52.330;9.104;2023-07-24T12:37:53;3.10;;;2.50;;
3131;SDS011;62090;52.330;9.104;2023-07-24T12:40:23;4.87;;;2.50;;
3131;SDS011;62090;52.330;9.104;2023-07-24T12:42:55;3.40;;;2.10;;
3131;SDS011;62090;52.330;9.104;2023-07-24T12:45:25;2.63;;;2.07;;
3131;SDS011;62090;52.330;9.104;2023-07-24T12:47:57;2.80;;;2.27;;
3131;SDS011;62090;52.330;9.104;2023-07-24T12:50:28;5.23;;;2.53;;
3131;SDS011;62090;52.330;9.104;2023-07-24T12:52:58;2.30;;;2.10;;
3131;SDS011;62090;52.330;9.104;2023-07-24T12:55:33;3.60;;;2.27;;
3131;SDS011;62090;52.330;9.104;2023-07-24T12:58:03;2.80;;;2.40;;
3131;SDS011;62090;52.330;9.104;2023-07-24T13:00:33;2.77;;;2.40;;
3131;SDS011;62090;52.330;9.104;2023-07-24T13:03:06;3.97;;;2.33;;
3131;SDS011;62090;52.330;9.104;2023-07-24T13:05:36;8.10;;;2.80;;
3131;SDS011;62090;52.330;9.104;2023-07-24T13:08:07;3.40;;;2.87;;
3131;SDS011;62090;52.330;9.104;2023-07-24T13:10:36;3.90;;;2.93;;
3131;SDS011;62090;52.330;9.104;2023-07-24T13:13:06;3.53;;;3.10;;
3131;SDS011;62090;52.330;9.104;2023-07-24T13:15:36;5.40;;;2.73;;
3131;SDS011;62090;52.330;9.104;2023-07-24T13:18:09;5.40;;;2.67;;
3131;SDS011;62090;52.330;9.104;2023-07-24T13:20:54;4.23;;;2.63;;
3131;SDS011;62090;52.330;9.104;2023-07-24T13:23:24;3.83;;;2.57;;
3131;SDS011;62090;52.330;9.104;2023-07-24T13:25:54;3.30;;;3.00;;
3131;SDS011;62090;52.330;9.104;2023-07-24T13:28:24;4.17;;;3.07;;
3131;SDS011;62090;52.330;9.104;2023-07-24T13:30:54;3.03;;;2.60;;
3131;SDS011;62090;52.330;9.104;2023-07-24T13:33:27;6.57;;;2.80;;
3131;SDS011;62090;52.330;9.104;2023-07-24T13:35:57;4.77;;;3.40;;
3131;SDS011;62090;52.330;9.104;2023-07-24T13:38:27;5.93;;;3.70;;
3131;SDS011;62090;52.330;9.104;2023-07-24T13:40:57;7.33;;;4.20;;
3131;SDS011;62090;52.330;9.104;2023-07-24T13:43:27;4.43;;;3.40;;
3131;SDS011;62090;52.330;9.104;2023-07-24T13:45:57;5.83;;;3.77;;
3131;SDS011;62090;52.330;9.104;2023-07-24T13:48:32;5.03;;;3.40;;
3131;SDS011;62090;52.330;9.104;2023-07-24T13:51:02;6.50;;;4.07;;
3131;SDS011;62090;52.330;9.104;2023-07-24T13:53:32;3.70;;;3.07;;
3131;SDS011;62090;52.330;9.104;2023-07-24T13:56:02;4.40;;;4.00;;
3131;SDS011;62090;52.330;9.104;2023-07-24T13:58:33;6.90;;;4.13;;
3131;SDS011;62090;52.330;9.104;2023-07-24T14:01:03;5.00;;;4.23;;
3131;SDS011;62090;52.330;9.104;2023-07-24T14:03:36;5.03;;;4.30;;
3131;SDS011;62090;52.330;9.104;2023-07-24T14:06:06;5.57;;;4.87;;
3131;SDS011;62090;52.330;9.104;2023-07-24T14:08:36;9.73;;;4.47;;
3131;SDS011;62090;52.330;9.104;2023-07-24T14:11:07;5.30;;;4.30;;
3131;SDS011;62090;52.330;9.104;2023-07-24T14:13:38;10.23;;;4.77;;
3131;SDS011;62090;52.330;9.104;2023-07-24T14:16:08;7.67;;;4.37;;
3131;SDS011;62090;52.330;9.104;2023-07-24T14:18:41;5.70;;;4.87;;
3131;SDS011;62090;52.330;9.104;2023-07-24T14:21:11;6.97;;;4.80;;
3131;SDS011;62090;52.330;9.104;2023-07-24T14:23:41;6.13;;;4.70;;
3131;SDS011;62090;52.330;9.104;2023-07-24T14:26:11;5.13;;;4.37;;
3131;SDS011;62090;52.330;9.104;2023-07-24T14:28:41;6.93;;;5.03;;
3131;SDS011;62090;52.330;9.104;2023-07-24T14:31:10;5.37;;;4.70;;
3131;SDS011;62090;52.330;9.104;2023-07-24T14:33:43;11.67;;;5.90;;
3131;SDS011;62090;52.330;9.104;2023-07-24T14:36:13;7.07;;;5.10;;
3131;SDS011;62090;52.330;9.104;2023-07-24T14:38:43;5.40;;;4.90;;
3131;SDS011;62090;52.330;9.104;2023-07-24T14:41:13;5.77;;;4.93;;
3131;SDS011;62090;52.330;9.104;2023-07-24T14:43:43;6.60;;;5.00;;
3131;SDS011;62090;52.330;9.104;2023-07-24T14:46:12;6.73;;;5.60;;
3131;SDS011;62090;52.330;9.104;2023-07-24T14:48:45;7.00;;;6.30;;
3131;SDS011;62090;52.330;9.104;2023-07-24T14:51:15;8.63;;;5.23;;
3131;SDS011;62090;52.330;9.104;2023-07-24T14:53:45;8.20;;;5.47;;
3131;SDS011;62090;52.330;9.104;2023-07-24T14:56:15;5.80;;;5.20;;
3131;SDS011;62090;52.330;9.104;2023-07-24T14:58:45;6.13;;;4.43;;
3131;SDS011;62090;52.330;9.104;2023-07-24T15:01:15;6.50;;;4.13;;
3131;SDS011;62090;52.330;9.104;2023-07-24T15:03:47;10.07;;;3.93;;
3131;SDS011;62090;52.330;9.104;2023-07-24T15:06:18;5.30;;;3.60;;
3131;SDS011;62090;52.330;9.104;2023-07-24T15:08:48;4.80;;;3.60;;
3131;SDS011;62090;52.330;9.104;2023-07-24T15:11:22;7.53;;;3.30;;
3131;SDS011;62090;52.330;9.104;2023-07-24T15:13:52;3.40;;;3.10;;
3131;SDS011;62090;52.330;9.104;2023-07-24T15:16:22;4.47;;;2.90;;
3131;SDS011;62090;52.330;9.104;2023-07-24T15:18:55;4.53;;;3.27;;
3131;SDS011;62090;52.330;9.104;2023-07-24T15:21:25;2.63;;;2.40;;